createdAt,value
2023-04-16T00:00:15.645Z,35.51
2023-04-16T00:03:04.174Z,35.73
2023-04-16T00:05:32.665Z,35.64
2023-04-16T00:08:01.552Z,35.75
2023-04-16T00:10:29.506Z,35.71
2023-04-16T00:12:57.620Z,35.71
2023-04-16T00:15:26.084Z,35.66
2023-04-16T00:17:54.199Z,35.60
2023-04-16T00:20:22.641Z,35.69
2023-04-16T00:22:51.336Z,35.64
2023-04-16T00:25:19.420Z,35.69
2023-04-16T00:27:47.469Z,35.57
2023-04-16T00:30:16.062Z,35.65
2023-04-16T00:32:44.030Z,35.77
2023-04-16T00:35:12.191Z,35.83
2023-04-16T00:37:40.276Z,35.76
2023-04-16T00:40:09.068Z,35.66
2023-04-16T00:42:38.255Z,35.73
2023-04-16T00:45:07.352Z,35.62
2023-04-16T00:47:35.430Z,35.72
2023-04-16T00:50:04.622Z,35.72
2023-04-16T00:52:33.087Z,35.83
2023-04-16T00:55:01.519Z,35.76
2023-04-16T00:57:30.773Z,35.75
2023-04-16T00:59:58.834Z,35.82
2023-04-16T01:02:27.090Z,35.76
2023-04-16T01:04:55.304Z,35.79
2023-04-16T01:07:23.571Z,35.70
2023-04-16T01:09:51.753Z,35.74
2023-04-16T01:12:19.818Z,35.76
2023-04-16T01:14:47.785Z,35.76
2023-04-16T01:17:15.941Z,35.76
2023-04-16T01:19:44.148Z,35.83
2023-04-16T01:22:12.335Z,35.78
2023-04-16T01:24:40.802Z,35.77
2023-04-16T01:27:11.422Z,35.69
2023-04-16T01:29:39.614Z,35.79
2023-04-16T01:32:08.486Z,35.74
2023-04-16T01:34:38.767Z,35.91
2023-04-16T01:37:07.560Z,35.76
2023-04-16T01:39:35.783Z,35.83
2023-04-16T01:42:03.863Z,35.71
2023-04-16T01:44:31.955Z,35.98
2023-04-16T01:47:00.354Z,35.74
2023-04-16T01:49:28.376Z,35.78
2023-04-16T01:51:56.597Z,35.72
2023-04-16T01:54:25.486Z,35.71
2023-04-16T01:56:53.626Z,35.88
2023-04-16T01:59:21.929Z,35.76
2023-04-16T02:01:50.146Z,35.81
2023-04-16T02:04:18.141Z,35.76
2023-04-16T02:06:47.031Z,35.94
2023-04-16T02:09:15.711Z,35.87
2023-04-16T02:11:43.999Z,35.86
2023-04-16T02:14:12.263Z,35.75
2023-04-16T02:16:40.577Z,35.88
2023-04-16T02:19:14.649Z,35.81
2023-04-16T02:21:43.753Z,35.80
2023-04-16T02:24:12.225Z,35.91
2023-04-16T02:26:40.707Z,35.84
2023-04-16T02:29:13.187Z,35.83
2023-04-16T02:31:44.724Z,35.88
2023-04-16T02:34:13.844Z,35.89
2023-04-16T02:36:42.125Z,35.83
2023-04-16T02:39:10.651Z,35.75
2023-04-16T02:41:38.772Z,35.73
2023-04-16T02:44:06.933Z,35.73
2023-04-16T02:46:35.130Z,35.90
2023-04-16T02:49:03.186Z,35.77
2023-04-16T02:51:31.269Z,35.91
2023-04-16T02:53:59.338Z,35.85
2023-04-16T02:56:27.397Z,35.95
2023-04-16T02:58:55.674Z,35.84
2023-04-16T03:01:23.664Z,35.83
2023-04-16T03:03:52.071Z,35.80
2023-04-16T03:06:20.111Z,35.71
2023-04-16T03:08:48.272Z,35.72
2023-04-16T03:11:17.172Z,35.64
2023-04-16T03:13:45.345Z,35.69
2023-04-16T03:16:13.466Z,35.86
2023-04-16T03:18:41.483Z,35.79
2023-04-16T03:21:09.665Z,35.83
2023-04-16T03:23:37.824Z,35.76
2023-04-16T03:26:06.579Z,35.78
2023-04-16T03:28:35.046Z,35.85
2023-04-16T03:31:03.416Z,35.78
2023-04-16T03:33:31.506Z,35.76
2023-04-16T03:35:59.725Z,35.81
2023-04-16T03:38:30.680Z,35.96
2023-04-16T03:41:00.083Z,35.86
2023-04-16T03:43:28.254Z,35.84
2023-04-16T03:45:56.782Z,35.82
2023-04-16T03:48:24.793Z,35.82
2023-04-16T03:50:53.868Z,35.75
2023-04-16T03:53:22.072Z,35.71
2023-04-16T03:55:51.681Z,35.83
2023-04-16T03:58:20.469Z,35.75
2023-04-16T04:00:48.952Z,35.83
2023-04-16T04:03:18.095Z,35.80
2023-04-16T04:05:47.763Z,35.89
2023-04-16T04:08:18.183Z,35.98
2023-04-16T04:10:46.348Z,35.90
2023-04-16T04:13:15.248Z,35.99
2023-04-16T04:15:44.651Z,35.94
2023-04-16T04:20:45.812Z,35.79
2023-04-16T04:23:15.930Z,36.02
2023-04-16T04:25:44.536Z,35.94
2023-04-16T04:28:14.028Z,35.97
2023-04-16T04:30:42.308Z,35.80
2023-04-16T04:33:10.663Z,35.77
2023-04-16T04:43:19.753Z,35.85
2023-04-16T04:45:49.477Z,35.79
2023-04-16T04:48:18.355Z,35.84
2023-04-16T04:50:46.837Z,35.94
2023-04-16T04:53:15.158Z,35.88
2023-04-16T04:55:43.955Z,35.85
2023-04-16T04:58:12.088Z,35.79
2023-04-16T05:00:40.430Z,35.90
2023-04-16T05:03:11.569Z,35.89
2023-04-16T05:05:40.794Z,35.79
2023-04-16T05:08:08.984Z,35.70
2023-04-16T05:10:36.950Z,35.81
2023-04-16T05:13:05.038Z,35.79
2023-04-16T05:15:33.086Z,35.80
2023-04-16T05:18:01.422Z,35.87
2023-04-16T05:20:29.433Z,35.79
2023-04-16T05:22:57.521Z,35.63
2023-04-16T05:25:25.410Z,35.69
2023-04-16T05:27:53.460Z,35.68
2023-04-16T05:30:21.518Z,35.68
2023-04-16T05:32:49.496Z,35.60
2023-04-16T05:35:17.914Z,35.72
2023-04-16T05:37:46.149Z,35.58
2023-04-16T05:40:14.681Z,35.48
2023-04-16T05:42:42.800Z,35.42
2023-04-16T05:45:11.174Z,35.48
2023-04-16T05:47:39.100Z,35.52
2023-04-16T05:50:07.833Z,35.42
2023-04-16T05:52:35.900Z,35.49
2023-04-16T05:55:04.181Z,35.37
2023-04-16T05:57:32.962Z,35.36
2023-04-16T06:00:01.044Z,35.31
2023-04-16T06:02:30.781Z,35.09
2023-04-16T06:04:59.261Z,35.32
2023-04-16T06:07:27.199Z,35.22
2023-04-16T06:09:55.272Z,35.26
2023-04-16T06:12:23.338Z,35.13
2023-04-16T06:14:51.754Z,35.06
2023-04-16T06:17:20.009Z,35.01
2023-04-16T06:19:48.069Z,35.12
2023-04-16T06:22:16.343Z,34.88
2023-04-16T06:24:44.725Z,35.02
2023-04-16T06:27:12.798Z,34.88
2023-04-16T06:29:41.810Z,34.82
2023-04-16T06:32:10.268Z,34.79
2023-04-16T06:34:38.868Z,34.76
2023-04-16T06:37:09.876Z,34.67
2023-04-16T06:39:38.788Z,34.54
2023-04-16T06:42:06.873Z,34.68
2023-04-16T06:44:35.789Z,34.72
2023-04-16T06:47:03.903Z,34.50
2023-04-16T06:49:32.207Z,34.30
2023-04-16T06:52:00.482Z,34.32
2023-04-16T06:54:28.412Z,34.47
2023-04-16T06:56:56.500Z,34.21
2023-04-16T06:59:24.903Z,34.26
2023-04-16T07:01:53.051Z,34.20
2023-04-16T07:04:21.303Z,34.13
2023-04-16T07:06:49.415Z,34.14
2023-04-16T07:09:20.248Z,34.28
2023-04-16T07:11:48.324Z,34.21
2023-04-16T07:14:16.402Z,34.11
2023-04-16T07:16:44.541Z,34.19
2023-04-16T07:19:12.859Z,34.23
2023-04-16T07:21:43.837Z,34.18
2023-04-16T07:24:12.062Z,34.18
2023-04-16T07:26:40.042Z,34.04
2023-04-16T07:29:08.669Z,34.12
2023-04-16T07:31:37.014Z,34.14
2023-04-16T07:34:05.273Z,34.08
2023-04-16T07:36:33.760Z,34.05
2023-04-16T07:39:01.834Z,34.03
2023-04-16T07:41:29.909Z,34.11
2023-04-16T07:43:58.382Z,33.90
2023-04-16T07:46:30.509Z,33.91
2023-04-16T07:49:04.350Z,33.97
2023-04-16T07:51:32.343Z,34.10
2023-04-16T07:54:00.809Z,34.01
2023-04-16T07:56:28.989Z,33.99
2023-04-16T07:58:58.344Z,34.04
2023-04-16T08:01:31.679Z,33.85
2023-04-16T08:03:59.720Z,34.05
2023-04-16T08:06:28.135Z,33.95
2023-04-16T08:08:56.217Z,33.80
2023-04-16T08:11:24.378Z,33.96
2023-04-16T08:13:52.450Z,33.93
2023-04-16T08:16:20.589Z,33.99
2023-04-16T08:18:49.001Z,33.88
2023-04-16T08:21:17.073Z,33.84
2023-04-16T08:23:45.139Z,33.75
2023-04-16T08:26:13.220Z,33.86
2023-04-16T08:28:41.178Z,33.79
2023-04-16T08:31:09.228Z,33.60
2023-04-16T08:33:37.331Z,33.80
2023-04-16T08:36:05.994Z,33.68
2023-04-16T08:38:33.969Z,33.74
2023-04-16T08:41:03.995Z,33.83
2023-04-16T08:43:34.751Z,33.72
2023-04-16T08:46:04.231Z,33.68
2023-04-16T08:48:33.850Z,33.81
2023-04-16T08:51:02.234Z,33.69
2023-04-16T08:53:37.492Z,33.58
2023-04-16T08:56:06.357Z,33.70
2023-04-16T08:58:35.867Z,33.69
2023-04-16T09:01:04.017Z,33.73
2023-04-16T09:06:05.815Z,33.63
2023-04-16T09:08:34.908Z,33.44
2023-04-16T09:11:02.994Z,33.63
2023-04-16T09:13:31.980Z,33.61
2023-04-16T09:16:00.061Z,33.66
2023-04-16T09:18:28.744Z,33.65
2023-04-16T09:20:57.250Z,33.49
2023-04-16T09:23:25.606Z,33.69
2023-04-16T09:28:58.900Z,33.55
2023-04-16T09:31:27.455Z,33.61
2023-04-16T09:34:08.869Z,33.64
2023-04-16T09:36:37.080Z,33.58
2023-04-16T09:39:05.226Z,33.58
2023-04-16T09:41:36.260Z,33.42
2023-04-16T09:44:05.548Z,33.47
2023-04-16T09:46:37.928Z,33.53
2023-04-16T09:49:10.607Z,33.56
2023-04-16T09:51:44.931Z,33.50
2023-04-16T09:54:13.115Z,33.51
2023-04-16T09:56:44.258Z,33.60
2023-04-16T09:59:19.322Z,33.43
2023-04-16T10:01:49.519Z,33.51
2023-04-16T10:04:18.040Z,33.44
2023-04-16T10:07:05.326Z,33.45
2023-04-16T10:09:43.017Z,33.57
2023-04-16T10:12:13.038Z,33.52
2023-04-16T10:14:41.337Z,33.52
2023-04-16T10:17:09.766Z,33.62
2023-04-16T10:19:38.577Z,33.59
2023-04-16T10:22:06.946Z,33.47
2023-04-16T10:24:35.566Z,33.56
2023-04-16T10:27:03.822Z,33.54
2023-04-16T10:29:31.910Z,33.54
2023-04-16T10:32:00.078Z,33.45
2023-04-16T10:34:29.169Z,33.46
2023-04-16T10:36:57.214Z,33.53
2023-04-16T10:39:27.833Z,33.61
2023-04-16T10:42:12.223Z,33.64
2023-04-16T10:44:44.390Z,33.43
2023-04-16T10:47:14.258Z,33.49
2023-04-16T10:49:43.782Z,33.57
2023-04-16T10:52:13.610Z,33.40
2023-04-16T10:54:41.662Z,33.49
2023-04-16T10:57:12.340Z,33.47
2023-04-16T10:59:41.492Z,33.51
2023-04-16T11:02:17.930Z,33.48
2023-04-16T11:04:47.728Z,33.44
2023-04-16T11:07:18.661Z,33.38
2023-04-16T11:09:47.952Z,33.29
2023-04-16T11:12:24.114Z,33.27
2023-04-16T11:14:53.707Z,33.45
2023-04-16T11:17:22.218Z,33.32
2023-04-16T11:24:56.708Z,33.26
2023-04-16T11:27:25.543Z,33.38
2023-04-16T11:30:07.492Z,33.33
2023-04-16T11:32:36.748Z,33.39
2023-04-16T11:35:13.522Z,33.31
2023-04-16T11:37:42.195Z,33.31
2023-04-16T11:40:11.080Z,33.33
2023-04-16T11:42:42.715Z,33.36
2023-04-16T11:45:12.142Z,33.35
2023-04-16T11:47:58.295Z,33.28
2023-04-16T11:50:27.964Z,33.34
2023-04-16T11:52:57.161Z,33.31
2023-04-16T11:55:26.135Z,33.39
2023-04-16T11:57:54.207Z,33.36
2023-04-16T12:00:24.584Z,33.41
2023-04-16T12:02:54.047Z,33.35
2023-04-16T12:05:48.942Z,33.24
2023-04-16T12:08:29.095Z,33.43
2023-04-16T12:10:58.304Z,33.40
2023-04-16T12:13:26.369Z,33.40
2023-04-16T12:18:28.866Z,33.15
2023-04-16T12:20:56.992Z,33.36
2023-04-16T12:26:12.443Z,33.31
2023-04-16T12:28:41.722Z,33.34
2023-04-16T12:31:11.488Z,33.31
2023-04-16T12:33:39.624Z,33.29
2023-04-16T12:36:18.671Z,33.30
2023-04-16T12:38:46.916Z,33.26
2023-04-16T12:41:14.888Z,33.22
2023-04-16T12:43:42.959Z,33.21
2023-04-16T12:46:11.250Z,33.17
2023-04-16T12:48:39.019Z,33.28
2023-04-16T12:51:07.493Z,33.38
2023-04-16T12:53:35.570Z,33.33
2023-04-16T12:56:03.651Z,33.29
2023-04-16T12:58:31.903Z,33.40
2023-04-16T13:01:00.175Z,33.43
2023-04-16T13:03:28.505Z,33.36
2023-04-16T13:05:57.037Z,33.35
2023-04-16T13:08:24.898Z,33.39
2023-04-16T13:10:52.869Z,33.31
2023-04-16T13:13:20.854Z,33.45
2023-04-16T13:15:48.981Z,33.39
2023-04-16T13:18:17.301Z,33.52
2023-04-16T13:20:45.673Z,33.49
2023-04-16T13:23:13.763Z,33.31
2023-04-16T13:25:41.818Z,33.51
2023-04-16T13:28:10.001Z,33.44
2023-04-16T13:30:38.283Z,33.51
2023-04-16T13:33:06.392Z,33.41
2023-04-16T13:35:34.416Z,33.55
2023-04-16T13:38:02.305Z,33.58
2023-04-16T13:40:30.463Z,33.47
2023-04-16T13:42:58.527Z,33.61
2023-04-16T13:45:28.030Z,33.58
2023-04-16T13:47:56.553Z,33.63
2023-04-16T13:50:24.676Z,33.69
2023-04-16T13:52:52.826Z,33.57
2023-04-16T13:55:21.143Z,33.61
2023-04-16T13:57:49.801Z,33.70
2023-04-16T14:00:18.508Z,33.61
2023-04-16T14:02:49.051Z,33.60
2023-04-16T14:05:17.328Z,33.63
2023-04-16T14:07:46.522Z,33.76
2023-04-16T14:10:14.597Z,33.64
2023-04-16T14:12:44.429Z,33.75
2023-04-16T14:15:14.756Z,33.79
2023-04-16T14:17:43.702Z,33.79
2023-04-16T14:20:12.957Z,33.77
2023-04-16T14:22:42.625Z,33.80
2023-04-16T14:25:11.303Z,33.78
2023-04-16T14:27:39.679Z,33.61
2023-04-16T14:30:07.854Z,33.83
2023-04-16T14:32:36.600Z,33.76
2023-04-16T14:35:05.735Z,33.78
2023-04-16T14:37:35.964Z,33.86
2023-04-16T14:40:08.992Z,33.83
2023-04-16T14:42:37.429Z,33.86
2023-04-16T14:45:08.912Z,33.83
2023-04-16T14:47:37.977Z,33.82
2023-04-16T14:50:06.704Z,33.87
2023-04-16T14:52:35.052Z,34.00
2023-04-16T14:55:03.230Z,33.93
2023-04-16T14:57:31.676Z,33.98
2023-04-16T14:59:59.879Z,34.04
2023-04-16T15:02:28.260Z,33.88
2023-04-16T15:04:56.836Z,33.87
2023-04-16T15:07:26.425Z,34.04
2023-04-16T15:09:54.628Z,33.78
2023-04-16T15:12:22.615Z,33.87
2023-04-16T15:14:50.969Z,33.85
2023-04-16T15:17:19.523Z,33.98
2023-04-16T15:19:47.826Z,34.05
2023-04-16T15:22:16.007Z,33.92
2023-04-16T15:24:44.160Z,33.90
2023-04-16T15:27:14.101Z,34.00
2023-04-16T15:29:43.207Z,34.03
2023-04-16T15:32:11.495Z,34.01
2023-04-16T15:34:39.448Z,34.01
2023-04-16T15:37:07.408Z,34.03
2023-04-16T15:39:35.584Z,33.92
2023-04-16T15:42:09.483Z,33.92
2023-04-16T15:44:37.578Z,34.13
2023-04-16T15:47:08.197Z,34.19
2023-04-16T15:49:36.704Z,34.11
2023-04-16T15:52:05.049Z,34.07
2023-04-16T15:54:33.077Z,34.18
2023-04-16T15:57:01.954Z,34.15
2023-04-16T15:59:30.201Z,34.10
2023-04-16T16:01:59.155Z,34.12
2023-04-16T16:04:28.355Z,34.14
2023-04-16T16:06:56.683Z,34.14
2023-04-16T16:09:28.110Z,34.18
2023-04-16T16:11:57.429Z,34.12
2023-04-16T16:14:27.038Z,34.16
2023-04-16T16:16:55.150Z,34.11
2023-04-16T16:19:23.173Z,34.15
2023-04-16T16:21:51.536Z,34.07
2023-04-16T16:24:19.657Z,34.21
2023-04-16T16:26:47.800Z,34.25
2023-04-16T16:29:16.081Z,34.28
2023-04-16T16:31:44.193Z,34.35
2023-04-16T16:34:20.094Z,34.30
2023-04-16T16:36:49.294Z,34.20
2023-04-16T16:39:17.358Z,34.17
2023-04-16T16:41:45.862Z,34.29
2023-04-16T16:44:14.017Z,34.23
2023-04-16T16:46:42.235Z,34.38
2023-04-16T16:49:10.661Z,34.41
2023-04-16T16:51:39.081Z,34.32
2023-04-16T16:54:07.427Z,34.34
2023-04-16T16:56:35.295Z,34.38
2023-04-16T16:59:03.234Z,34.34
2023-04-16T17:01:32.188Z,34.24
2023-04-16T17:04:00.631Z,34.35
2023-04-16T17:06:28.862Z,34.47
2023-04-16T17:08:57.002Z,34.58
2023-04-16T17:11:27.336Z,34.51
2023-04-16T17:13:55.383Z,34.50
2023-04-16T17:16:24.229Z,34.65
2023-04-16T17:18:52.355Z,34.48
2023-04-16T17:21:20.317Z,34.46
2023-04-16T17:23:48.504Z,34.52
2023-04-16T17:26:16.787Z,34.49
2023-04-16T17:28:44.739Z,34.53
2023-04-16T17:31:13.019Z,34.67
2023-04-16T17:33:41.195Z,34.64
2023-04-16T17:36:09.140Z,34.62
2023-04-16T17:38:37.142Z,34.68
2023-04-16T17:41:05.209Z,34.65
2023-04-16T17:43:33.274Z,34.64
2023-04-16T17:46:01.588Z,34.76
2023-04-16T17:48:29.829Z,34.75
2023-04-16T17:50:58.006Z,34.71
2023-04-16T17:53:25.973Z,34.64
2023-04-16T17:55:56.564Z,34.74
2023-04-16T17:58:26.780Z,34.69
2023-04-16T18:00:54.905Z,34.76
2023-04-16T18:03:23.104Z,34.76
2023-04-16T18:05:51.660Z,34.79
2023-04-16T18:08:19.727Z,34.90
2023-04-16T18:10:47.791Z,34.78
2023-04-16T18:13:15.948Z,34.99
2023-04-16T18:15:44.066Z,34.91
2023-04-16T18:18:12.246Z,35.02
2023-04-16T18:20:40.931Z,34.98
2023-04-16T18:23:09.186Z,34.92
2023-04-16T18:25:37.490Z,34.97
2023-04-16T18:28:06.343Z,35.08
2023-04-16T18:30:35.530Z,34.94
2023-04-16T18:33:25.330Z,35.10
2023-04-16T18:35:51.547Z,34.92
2023-04-16T18:38:19.628Z,34.94
2023-04-16T18:40:49.883Z,34.97
2023-04-16T18:43:18.113Z,35.01
2023-04-16T18:45:46.395Z,35.00
2023-04-16T18:48:14.664Z,34.94
2023-04-16T18:50:42.846Z,35.14
2023-04-16T18:53:10.910Z,34.99
2023-04-16T18:55:39.041Z,35.10
2023-04-16T18:58:07.372Z,34.96
2023-04-16T19:00:35.670Z,34.99
2023-04-16T19:03:07.102Z,35.06
2023-04-16T19:05:35.788Z,35.12
2023-04-16T19:08:04.064Z,35.20
2023-04-16T19:10:32.142Z,35.12
2023-04-16T19:13:00.275Z,35.14
2023-04-16T19:15:31.094Z,35.21
2023-04-16T19:18:00.620Z,35.14
2023-04-16T19:20:28.821Z,35.10
2023-04-16T19:22:57.000Z,35.11
2023-04-16T19:25:24.940Z,35.26
2023-04-16T19:27:53.351Z,35.27
2023-04-16T19:30:21.625Z,35.16
2023-04-16T19:32:49.766Z,35.08
2023-04-16T19:35:17.871Z,35.17
2023-04-16T19:37:45.948Z,35.16
2023-04-16T19:40:14.220Z,35.24
2023-04-16T19:42:42.324Z,35.23
2023-04-16T19:45:10.644Z,35.20
2023-04-16T19:47:41.865Z,35.19
2023-04-16T19:50:10.821Z,35.43
2023-04-16T19:52:39.152Z,35.31
2023-04-16T19:55:08.188Z,35.23
2023-04-16T19:57:36.355Z,35.34
2023-04-16T20:00:08.923Z,35.39
2023-04-16T20:02:36.955Z,35.53
2023-04-16T20:05:06.303Z,35.28
2023-04-16T20:07:34.579Z,35.47
2023-04-16T20:10:03.202Z,35.27
2023-04-16T20:12:31.142Z,35.55
2023-04-16T20:14:59.727Z,35.58
2023-04-16T20:17:28.001Z,35.56
2023-04-16T20:20:01.033Z,35.36
2023-04-16T20:22:29.156Z,35.69
2023-04-16T20:24:58.143Z,35.55
2023-04-16T20:27:26.375Z,35.42
2023-04-16T20:29:54.594Z,35.40
2023-04-16T20:32:23.340Z,35.59
2023-04-16T20:34:52.273Z,35.64
2023-04-16T20:37:20.462Z,35.49
2023-04-16T20:39:50.466Z,35.49
2023-04-16T20:42:22.205Z,35.51
2023-04-16T20:44:56.577Z,35.67
2023-04-16T20:47:24.815Z,35.58
2023-04-16T20:49:54.815Z,35.71
2023-04-16T20:52:22.912Z,35.50
2023-04-16T20:54:52.523Z,35.46
2023-04-16T20:57:20.590Z,35.60
2023-04-16T20:59:49.277Z,35.68
2023-04-16T21:02:17.450Z,35.70
2023-04-16T21:04:46.083Z,35.65
2023-04-16T21:07:14.509Z,35.56
2023-04-16T21:09:42.497Z,35.34
2023-04-16T21:12:10.581Z,35.71
2023-04-16T21:14:38.516Z,35.66
2023-04-16T21:17:06.692Z,35.73
2023-04-16T21:19:34.674Z,35.64
2023-04-16T21:22:02.980Z,35.69
2023-04-16T21:24:32.671Z,35.62
2023-04-16T21:27:01.840Z,35.44
2023-04-16T21:29:30.535Z,35.52
2023-04-16T21:31:58.574Z,35.71
2023-04-16T21:34:26.688Z,35.52
2023-04-16T21:36:54.778Z,35.72
2023-04-16T21:39:24.769Z,35.58
2023-04-16T21:41:52.843Z,35.54
2023-04-16T21:44:21.433Z,35.72
2023-04-16T21:46:50.083Z,35.81
2023-04-16T21:49:18.309Z,35.71
2023-04-16T21:51:46.465Z,35.69
2023-04-16T21:54:18.030Z,35.56
2023-04-16T21:56:46.346Z,35.70
2023-04-16T21:59:14.381Z,35.75
2023-04-16T22:01:42.904Z,35.69
2023-04-16T22:04:12.404Z,35.62
2023-04-16T22:06:40.839Z,35.64
2023-04-16T22:09:09.732Z,35.84
2023-04-16T22:11:38.514Z,35.75
2023-04-16T22:14:08.337Z,35.79
2023-04-16T22:16:36.686Z,35.83
2023-04-16T22:19:05.104Z,35.79
2023-04-16T22:21:33.262Z,35.73
2023-04-16T22:24:01.349Z,35.73
2023-04-16T22:26:29.417Z,35.73
2023-04-16T22:28:57.687Z,35.76
2023-04-16T22:31:25.790Z,35.83
2023-04-16T22:33:53.713Z,35.82
2023-04-16T22:36:22.203Z,35.76
2023-04-16T22:38:50.356Z,35.75
2023-04-16T22:41:18.578Z,35.72
2023-04-16T22:43:46.843Z,35.92
2023-04-16T22:46:14.934Z,35.82
2023-04-16T22:48:43.083Z,35.71
2023-04-16T22:51:11.137Z,35.86
2023-04-16T22:53:39.091Z,35.80
2023-04-16T22:56:07.700Z,35.63
2023-04-16T22:58:35.881Z,35.91
2023-04-16T23:01:03.913Z,36.02
2023-04-16T23:03:32.093Z,35.81
2023-04-16T23:06:00.187Z,35.73
2023-04-16T23:08:28.254Z,35.87
2023-04-16T23:10:56.334Z,35.81
2023-04-16T23:13:24.499Z,35.81
2023-04-16T23:15:52.889Z,35.87
2023-04-16T23:18:20.957Z,35.92
2023-04-16T23:20:52.921Z,35.77
2023-04-16T23:23:21.303Z,35.69
2023-04-16T23:25:51.933Z,35.79
2023-04-16T23:28:20.524Z,35.87
2023-04-16T23:30:52.501Z,35.93
2023-04-16T23:33:21.062Z,35.91
2023-04-16T23:35:48.893Z,35.95
2023-04-16T23:38:17.097Z,35.91
2023-04-16T23:40:45.183Z,36.06
2023-04-16T23:43:13.259Z,36.03
2023-04-16T23:45:41.315Z,35.87
2023-04-16T23:48:09.486Z,35.78
2023-04-16T23:50:37.580Z,35.83
2023-04-16T23:53:05.649Z,35.89
2023-04-16T23:55:33.926Z,35.96
2023-04-16T23:58:01.891Z,35.98
